sensor_id;sensor_type;location;lat;lon;timestamp;pressure;altitude;pressure_sealevel;temperature;humidity
83551;BME280;74617;47.082;15.524;2024-03-07T00:01:47;96686.44;;;19.15;47.47
83551;BME280;74617;47.082;15.524;2024-03-07T00:04:13;96683.72;;;19.15;47.55
83551;BME280;74617;47.082;15.524;2024-03-07T00:06:38;96688.31;;;19.14;47.64
83551;BME280;74617;47.082;15.524;2024-03-07T00:09:05;96681.28;;;19.13;47.32
83551;BME280;74617;47.082;15.524;2024-03-07T00:11:31;96676.63;;;19.14;47.75
83551;BME280;74617;47.082;15.524;2024-03-07T00:13:56;96692.19;;;19.13;47.28
83551;BME280;74617;47.082;15.524;2024-03-07T00:16:22;96686.75;;;19.13;47.36
83551;BME280;74617;47.082;15.524;2024-03-07T00:18:47;96684.00;;;19.13;47.58
83551;BME280;74617;47.082;15.524;2024-03-07T00:21:13;96679.69;;;19.12;47.55
83551;BME280;74617;47.082;15.524;2024-03-07T00:23:38;96673.47;;;19.12;47.55
83551;BME280;74617;47.082;15.524;2024-03-07T00:26:04;96676.97;;;19.12;47.49
83551;BME280;74617;47.082;15.524;2024-03-07T00:28:29;96681.63;;;19.12;47.51
83551;BME280;74617;47.082;15.524;2024-03-07T00:30:58;96680.84;;;19.11;47.34
83551;BME280;74617;47.082;15.524;2024-03-07T00:33:24;96684.34;;;19.12;47.42
83551;BME280;74617;47.082;15.524;2024-03-07T00:35:50;96681.97;;;19.10;47.32
83551;BME280;74617;47.082;15.524;2024-03-07T00:38:15;96677.31;;;19.11;47.51
83551;BME280;74617;47.082;15.524;2024-03-07T00:40:41;96675.38;;;19.11;47.63
83551;BME280;74617;47.082;15.524;2024-03-07T00:43:06;96678.44;;;19.10;47.36
83551;BME280;74617;47.082;15.524;2024-03-07T00:45:31;96672.22;;;19.09;47.55
83551;BME280;74617;47.082;15.524;2024-03-07T00:47:57;96674.13;;;19.09;47.45
83551;BME280;74617;47.082;15.524;2024-03-07T00:50:24;96670.63;;;19.08;47.33
83551;BME280;74617;47.082;15.524;2024-03-07T00:52:49;96672.53;;;19.08;47.42
83551;BME280;74617;47.082;15.524;2024-03-07T00:55:15;96675.28;;;19.08;47.55
83551;BME280;74617;47.082;15.524;2024-03-07T00:57:41;96679.88;;;19.07;47.13
83551;BME280;74617;47.082;15.524;2024-03-07T01:00:06;96672.53;;;19.08;47.51
83551;BME280;74617;47.082;15.524;2024-03-07T01:02:41;96670.13;;;19.06;47.34
83551;BME280;74617;47.082;15.524;2024-03-07T01:05:11;96677.16;;;19.07;47.61
83551;BME280;74617;47.082;15.524;2024-03-07T01:07:38;96679.44;;;19.05;47.33
83551;BME280;74617;47.082;15.524;2024-03-07T01:10:04;96678.28;;;19.06;47.43
83551;BME280;74617;47.082;15.524;2024-03-07T01:12:31;96681.03;;;19.06;47.54
83551;BME280;74617;47.082;15.524;2024-03-07T01:14:57;96682.94;;;19.06;47.59
83551;BME280;74617;47.082;15.524;2024-03-07T01:17:23;96672.41;;;19.04;47.65
83551;BME280;74617;47.082;15.524;2024-03-07T01:19:49;96677.84;;;19.04;47.61
83551;BME280;74617;47.082;15.524;2024-03-07T01:22:14;96675.91;;;19.05;47.59
83551;BME280;74617;47.082;15.524;2024-03-07T01:24:40;96672.41;;;19.04;47.65
83551;BME280;74617;47.082;15.524;2024-03-07T01:27:05;96673.53;;;19.03;47.62
83551;BME280;74617;47.082;15.524;2024-03-07T01:29:31;96676.25;;;19.03;47.58
83551;BME280;74617;47.082;15.524;2024-03-07T01:31:56;96676.25;;;19.03;48.04
83551;BME280;74617;47.082;15.524;2024-03-07T01:34:22;96676.25;;;19.03;47.71
83551;BME280;74617;47.082;15.524;2024-03-07T01:36:47;96673.53;;;19.03;47.46
83551;BME280;74617;47.082;15.524;2024-03-07T01:39:12;96670.81;;;19.03;47.83
83551;BME280;74617;47.082;15.524;2024-03-07T01:41:38;96675.47;;;19.03;47.58
83551;BME280;74617;47.082;15.524;2024-03-07T01:44:03;96662.19;;;19.01;47.53
83551;BME280;74617;47.082;15.524;2024-03-07T01:46:29;96664.91;;;19.01;47.39
83551;BME280;74617;47.082;15.524;2024-03-07T01:48:55;96667.63;;;19.01;47.69
83551;BME280;74617;47.082;15.524;2024-03-07T01:51:21;96661.34;;;19.01;47.38
83551;BME280;74617;47.082;15.524;2024-03-07T01:53:49;96660.56;;;19.00;47.50
83551;BME280;74617;47.082;15.524;2024-03-07T01:56:14;96662.50;;;19.00;47.60
83551;BME280;74617;47.082;15.524;2024-03-07T01:58:41;96656.25;;;18.99;47.64
83551;BME280;74617;47.082;15.524;2024-03-07T02:01:08;96658.97;;;18.99;47.78
83551;BME280;74617;47.082;15.524;2024-03-07T02:03:34;96658.97;;;18.99;47.53
83551;BME280;74617;47.082;15.524;2024-03-07T02:06:01;96657.38;;;18.98;47.73
83551;BME280;74617;47.082;15.524;2024-03-07T02:08:28;96661.69;;;18.99;47.67
83551;BME280;74617;47.082;15.524;2024-03-07T02:10:53;96654.66;;;18.98;47.53
83551;BME280;74617;47.082;15.524;2024-03-07T02:13:18;96660.09;;;18.98;47.58
83551;BME280;74617;47.082;15.524;2024-03-07T02:15:44;96662.81;;;18.98;47.52
83551;BME280;74617;47.082;15.524;2024-03-07T02:18:09;96661.22;;;18.97;47.61
83551;BME280;74617;47.082;15.524;2024-03-07T02:20:35;96661.22;;;18.97;47.65
83551;BME280;74617;47.082;15.524;2024-03-07T02:23:00;96663.97;;;18.97;47.24
83551;BME280;74617;47.082;15.524;2024-03-07T02:25:25;96662.38;;;18.96;47.44
83551;BME280;74617;47.082;15.524;2024-03-07T02:27:52;96647.97;;;18.96;47.57
83551;BME280;74617;47.082;15.524;2024-03-07T02:30:17;96660.78;;;18.95;47.77
83551;BME280;74617;47.082;15.524;2024-03-07T02:32:46;96652.59;;;18.95;47.82
83551;BME280;74617;47.082;15.524;2024-03-07T02:35:17;96658.06;;;18.95;47.64
83551;BME280;74617;47.082;15.524;2024-03-07T02:37:43;96651.81;;;18.95;47.63
83551;BME280;74617;47.082;15.524;2024-03-07T02:40:11;96651.03;;;18.94;47.52
83551;BME280;74617;47.082;15.524;2024-03-07T02:42:37;96654.84;;;18.93;47.89
83551;BME280;74617;47.082;15.524;2024-03-07T02:45:02;96654.84;;;18.93;47.69
83551;BME280;74617;47.082;15.524;2024-03-07T02:47:28;96661.09;;;18.94;47.72
83551;BME280;74617;47.082;15.524;2024-03-07T02:49:54;96648.59;;;18.93;47.67
83551;BME280;74617;47.082;15.524;2024-03-07T02:52:19;96657.56;;;18.93;47.81
83551;BME280;74617;47.082;15.524;2024-03-07T02:54:45;96653.25;;;18.92;47.86
83551;BME280;74617;47.082;15.524;2024-03-07T02:57:10;96654.03;;;18.93;47.75
83551;BME280;74617;47.082;15.524;2024-03-07T02:59:36;96658.69;;;18.92;47.73
83551;BME280;74617;47.082;15.524;2024-03-07T03:02:02;96653.25;;;18.92;47.86
83551;BME280;74617;47.082;15.524;2024-03-07T03:04:27;96658.69;;;18.92;47.64
83551;BME280;74617;47.082;15.524;2024-03-07T03:06:52;96656.31;;;18.91;47.60
83551;BME280;74617;47.082;15.524;2024-03-07T03:09:18;96659.81;;;18.91;47.80
83551;BME280;74617;47.082;15.524;2024-03-07T03:11:46;96660.97;;;18.90;47.73
83551;BME280;74617;47.082;15.524;2024-03-07T03:14:12;96655.50;;;18.90;47.71
83551;BME280;74617;47.082;15.524;2024-03-07T03:16:41;96659.38;;;18.89;47.63
83551;BME280;74617;47.082;15.524;2024-03-07T03:19:07;96653.94;;;18.89;47.78
83551;BME280;74617;47.082;15.524;2024-03-07T03:21:34;96667.88;;;18.88;47.86
83551;BME280;74617;47.082;15.524;2024-03-07T03:23:59;96667.53;;;18.89;47.76
83551;BME280;74617;47.082;15.524;2024-03-07T03:26:24;96668.66;;;18.88;47.53
83551;BME280;74617;47.082;15.524;2024-03-07T03:28:51;96667.06;;;18.87;47.61
83551;BME280;74617;47.082;15.524;2024-03-07T03:31:17;96669.78;;;18.87;47.79
83551;BME280;74617;47.082;15.524;2024-03-07T03:33:43;96658.88;;;18.87;47.76
83551;BME280;74617;47.082;15.524;2024-03-07T03:36:08;96664.66;;;18.85;47.80
83551;BME280;74617;47.082;15.524;2024-03-07T03:38:34;96670.91;;;18.86;47.65
83551;BME280;74617;47.082;15.524;2024-03-07T03:40:59;96669.31;;;18.85;47.54
83551;BME280;74617;47.082;15.524;2024-03-07T03:43:24;96670.91;;;18.86;47.54
83551;BME280;74617;47.082;15.524;2024-03-07T03:45:50;96669.31;;;18.85;47.67
83551;BME280;74617;47.082;15.524;2024-03-07T03:48:15;96674.75;;;18.85;47.86
83551;BME280;74617;47.082;15.524;2024-03-07T03:50:40;96676.69;;;18.84;47.63
83551;BME280;74617;47.082;15.524;2024-03-07T03:53:06;96672.03;;;18.85;47.64
83551;BME280;74617;47.082;15.524;2024-03-07T03:55:33;96684.06;;;18.84;47.41
83551;BME280;74617;47.082;15.524;2024-03-07T03:57:58;96676.22;;;18.82;48.04
83551;BME280;74617;47.082;15.524;2024-03-07T04:00:24;96677.81;;;18.83;47.63
83551;BME280;74617;47.082;15.524;2024-03-07T04:02:49;96677.03;;;18.83;47.79
83551;BME280;74617;47.082;15.524;2024-03-07T04:05:19;96680.88;;;18.82;48.01
83551;BME280;74617;47.082;15.524;2024-03-07T04:07:45;96680.88;;;18.82;47.57
83551;BME280;74617;47.082;15.524;2024-03-07T04:10:12;96680.09;;;18.81;47.92
83551;BME280;74617;47.082;15.524;2024-03-07T04:12:39;96682.81;;;18.81;47.82
83551;BME280;74617;47.082;15.524;2024-03-07T04:15:10;96678.50;;;18.80;47.65
83551;BME280;74617;47.082;15.524;2024-03-07T04:17:37;96683.94;;;18.80;47.74
83551;BME280;74617;47.082;15.524;2024-03-07T04:20:06;96688.56;;;18.80;47.88
83551;BME280;74617;47.082;15.524;2024-03-07T04:22:35;96680.38;;;18.80;47.51
83551;BME280;74617;47.082;15.524;2024-03-07T04:25:01;96678.50;;;18.80;47.92
83551;BME280;74617;47.082;15.524;2024-03-07T04:27:27;96680.38;;;18.80;47.92
83551;BME280;74617;47.082;15.524;2024-03-07T04:29:53;96682.00;;;18.81;47.93
83551;BME280;74617;47.082;15.524;2024-03-07T04:32:18;96687.75;;;18.79;47.86
83551;BME280;74617;47.082;15.524;2024-03-07T04:34:44;96679.59;;;18.79;48.11
83551;BME280;74617;47.082;15.524;2024-03-07T04:37:09;96673.03;;;18.80;48.10
83551;BME280;74617;47.082;15.524;2024-03-07T04:39:35;96674.94;;;18.80;48.04
83551;BME280;74617;47.082;15.524;2024-03-07T04:42:03;96679.28;;;18.81;48.53
83551;BME280;74617;47.082;15.524;2024-03-07T04:44:30;96680.88;;;18.82;48.52
83551;BME280;74617;47.082;15.524;2024-03-07T04:46:57;96682.47;;;18.83;48.62
83551;BME280;74617;47.082;15.524;2024-03-07T04:49:23;96684.06;;;18.84;48.86
83551;BME280;74617;47.082;15.524;2024-03-07T04:51:56;96687.25;;;18.86;48.92
83551;BME280;74617;47.082;15.524;2024-03-07T04:54:23;96687.25;;;18.86;48.86
83551;BME280;74617;47.082;15.524;2024-03-07T04:56:49;96698.91;;;18.86;48.74
83551;BME280;74617;47.082;15.524;2024-03-07T04:59:16;96692.69;;;18.86;49.05
83551;BME280;74617;47.082;15.524;2024-03-07T05:01:42;96693.47;;;18.86;49.04
83551;BME280;74617;47.082;15.524;2024-03-07T05:04:08;96698.13;;;18.86;48.99
83551;BME280;74617;47.082;15.524;2024-03-07T05:06:34;96697.34;;;18.47;40.26
83551;BME280;74617;47.082;15.524;2024-03-07T05:09:03;96697.84;;;17.85;37.23
83551;BME280;74617;47.082;15.524;2024-03-07T05:11:29;96710.00;;;17.44;36.73
83551;BME280;74617;47.082;15.524;2024-03-07T05:13:55;96695.44;;;17.14;36.38
83551;BME280;74617;47.082;15.524;2024-03-07T05:16:20;96704.84;;;16.82;35.32
83551;BME280;74617;47.082;15.524;2024-03-07T05:18:46;96709.19;;;17.09;38.43
83551;BME280;74617;47.082;15.524;2024-03-07T05:21:12;96695.00;;;17.38;40.89
83551;BME280;74617;47.082;15.524;2024-03-07T05:23:56;96702.16;;;17.60;42.17
83551;BME280;74617;47.082;15.524;2024-03-07T05:26:22;96705.88;;;17.73;42.75
83551;BME280;74617;47.082;15.524;2024-03-07T05:28:48;96704.72;;;17.83;43.30
83551;BME280;74617;47.082;15.524;2024-03-07T05:31:13;96706.94;;;17.89;43.82
83551;BME280;74617;47.082;15.524;2024-03-07T05:33:39;96712.22;;;17.94;44.06
83551;BME280;74617;47.082;15.524;2024-03-07T05:36:06;96710.47;;;17.98;44.21
83551;BME280;74617;47.082;15.524;2024-03-07T05:38:43;96712.53;;;18.01;44.71
83551;BME280;74617;47.082;15.524;2024-03-07T05:41:12;96717.31;;;18.04;44.47
83551;BME280;74617;47.082;15.524;2024-03-07T05:43:40;96716.22;;;18.06;44.82
83551;BME280;74617;47.082;15.524;2024-03-07T05:46:06;96722.09;;;18.08;44.78
83551;BME280;74617;47.082;15.524;2024-03-07T05:48:36;96722.56;;;18.10;44.78
83551;BME280;74617;47.082;15.524;2024-03-07T05:51:01;96725.75;;;18.12;45.21
83551;BME280;74617;47.082;15.524;2024-03-07T05:53:27;96721.94;;;18.13;45.36
83551;BME280;74617;47.082;15.524;2024-03-07T05:55:52;96727.84;;;18.15;45.28
83551;BME280;74617;47.082;15.524;2024-03-07T05:58:18;96725.13;;;18.15;45.43
83551;BME280;74617;47.082;15.524;2024-03-07T06:00:45;96731.03;;;18.17;45.66
83551;BME280;74617;47.082;15.524;2024-03-07T06:03:17;96731.03;;;18.17;45.31
83551;BME280;74617;47.082;15.524;2024-03-07T06:05:47;96731.03;;;18.17;45.51
83551;BME280;74617;47.082;15.524;2024-03-07T06:08:17;96731.38;;;18.15;45.67
83551;BME280;74617;47.082;15.524;2024-03-07T06:10:44;96738.41;;;18.16;45.69
83551;BME280;74617;47.082;15.524;2024-03-07T06:13:14;96740.31;;;18.16;45.60
83551;BME280;74617;47.082;15.524;2024-03-07T06:15:39;96740.31;;;18.16;45.71
83551;BME280;74617;47.082;15.524;2024-03-07T06:18:08;96743.50;;;18.18;45.67
83551;BME280;74617;47.082;15.524;2024-03-07T06:20:34;96743.84;;;18.16;45.43
83551;BME280;74617;47.082;15.524;2024-03-07T06:23:00;96747.34;;;18.17;45.45
83551;BME280;74617;47.082;15.524;2024-03-07T06:25:28;96744.97;;;18.15;45.41
83551;BME280;74617;47.082;15.524;2024-03-07T06:28:05;96747.69;;;18.15;45.66
83551;BME280;74617;47.082;15.524;2024-03-07T06:30:39;96755.03;;;18.15;45.77
83551;BME280;74617;47.082;15.524;2024-03-07T06:33:08;96756.63;;;18.16;45.95
83551;BME280;74617;47.082;15.524;2024-03-07T06:35:34;96760.47;;;18.15;45.93
83551;BME280;74617;47.082;15.524;2024-03-07T06:38:03;96762.41;;;18.14;45.45
83551;BME280;74617;47.082;15.524;2024-03-07T06:40:28;96764.31;;;18.14;45.74
83551;BME280;74617;47.082;15.524;2024-03-07T06:42:55;96762.72;;;18.13;45.60
83551;BME280;74617;47.082;15.524;2024-03-07T06:45:20;96760.00;;;18.13;45.72
83551;BME280;74617;47.082;15.524;2024-03-07T06:47:46;96768.16;;;18.13;45.52
83551;BME280;74617;47.082;15.524;2024-03-07T06:50:12;96768.16;;;18.13;45.44
83551;BME280;74617;47.082;15.524;2024-03-07T06:52:42;96764.66;;;18.12;45.79
83551;BME280;74617;47.082;15.524;2024-03-07T06:55:08;96759.50;;;18.11;45.22
83551;BME280;74617;47.082;15.524;2024-03-07T06:57:33;96760.81;;;18.13;45.10
83551;BME280;74617;47.082;15.524;2024-03-07T07:00:02;96762.72;;;18.13;44.64
83551;BME280;74617;47.082;15.524;2024-03-07T07:02:37;96754.56;;;18.13;45.52
83551;BME280;74617;47.082;15.524;2024-03-07T07:05:03;96768.16;;;18.13;45.26
83551;BME280;74617;47.082;15.524;2024-03-07T07:07:32;96762.72;;;18.13;45.15
83551;BME280;74617;47.082;15.524;2024-03-07T07:10:01;96765.44;;;18.13;45.77
83551;BME280;74617;47.082;15.524;2024-03-07T07:12:26;96765.44;;;18.13;45.48
83551;BME280;74617;47.082;15.524;2024-03-07T07:14:51;96769.75;;;18.14;45.32
83551;BME280;74617;47.082;15.524;2024-03-07T07:17:17;96761.59;;;18.14;45.16
83551;BME280;74617;47.082;15.524;2024-03-07T07:19:42;96769.44;;;18.15;45.12
83551;BME280;74617;47.082;15.524;2024-03-07T07:22:07;96773.75;;;18.16;45.35
83551;BME280;74617;47.082;15.524;2024-03-07T07:24:37;96773.75;;;18.16;45.50
83551;BME280;74617;47.082;15.524;2024-03-07T07:27:03;96771.81;;;18.17;45.10
83551;BME280;74617;47.082;15.524;2024-03-07T07:29:28;96774.53;;;18.17;45.21
83551;BME280;74617;47.082;15.524;2024-03-07T07:31:55;96770.69;;;18.18;45.15
83551;BME280;74617;47.082;15.524;2024-03-07T07:34:20;96769.91;;;18.17;44.92
83551;BME280;74617;47.082;15.524;2024-03-07T07:36:45;96775.34;;;18.17;44.90
83551;BME280;74617;47.082;15.524;2024-03-07T07:39:11;96766.88;;;18.19;45.18
83551;BME280;74617;47.082;15.524;2024-03-07T07:41:42;96771.50;;;18.18;45.22
83551;BME280;74617;47.082;15.524;2024-03-07T07:44:07;96767.69;;;18.19;45.17
83551;BME280;74617;47.082;15.524;2024-03-07T07:46:33;96764.16;;;18.19;44.91
83551;BME280;74617;47.082;15.524;2024-03-07T07:49:00;96762.25;;;18.19;44.83
83551;BME280;74617;47.082;15.524;2024-03-07T07:51:25;96769.28;;;18.20;45.05
83551;BME280;74617;47.082;15.524;2024-03-07T07:53:52;96761.13;;;18.20;45.24
83551;BME280;74617;47.082;15.524;2024-03-07T07:56:19;96758.41;;;18.20;45.09
83551;BME280;74617;47.082;15.524;2024-03-07T07:58:44;96764.63;;;18.21;45.24
83551;BME280;74617;47.082;15.524;2024-03-07T08:01:10;96770.06;;;18.21;45.11
83551;BME280;74617;47.082;15.524;2024-03-07T08:03:36;96759.19;;;18.21;45.17
83551;BME280;74617;47.082;15.524;2024-03-07T08:06:02;96770.06;;;18.21;45.23
83551;BME280;74617;47.082;15.524;2024-03-07T08:08:28;96766.22;;;18.22;45.24
83551;BME280;74617;47.082;15.524;2024-03-07T08:10:54;96769.75;;;18.22;45.24
83551;BME280;74617;47.082;15.524;2024-03-07T08:13:19;96767.81;;;18.23;45.09
83551;BME280;74617;47.082;15.524;2024-03-07T08:15:45;96766.22;;;18.22;45.17
83551;BME280;74617;47.082;15.524;2024-03-07T08:18:10;96770.53;;;18.23;45.29
83551;BME280;74617;47.082;15.524;2024-03-07T08:20:36;96773.25;;;18.23;45.26
83551;BME280;74617;47.082;15.524;2024-03-07T08:23:02;96772.47;;;18.22;45.47
83551;BME280;74617;47.082;15.524;2024-03-07T08:25:28;96773.25;;;18.23;45.52
83551;BME280;74617;47.082;15.524;2024-03-07T08:27:56;96779.50;;;18.23;45.54
83551;BME280;74617;47.082;15.524;2024-03-07T08:30:21;96774.84;;;18.24;45.32
83551;BME280;74617;47.082;15.524;2024-03-07T08:32:52;96772.13;;;18.24;45.56
83551;BME280;74617;47.082;15.524;2024-03-07T08:35:17;96776.44;;;18.25;45.51
83551;BME280;74617;47.082;15.524;2024-03-07T08:37:45;96776.44;;;18.25;45.57
83551;BME280;74617;47.082;15.524;2024-03-07T08:40:12;96785.44;;;18.25;45.85
83551;BME280;74617;47.082;15.524;2024-03-07T08:42:45;96776.94;;;18.27;45.51
83551;BME280;74617;47.082;15.524;2024-03-07T08:45:11;96772.28;;;18.27;45.50
83551;BME280;74617;47.082;15.524;2024-03-07T08:47:37;96770.38;;;18.28;45.50
83551;BME280;74617;47.082;15.524;2024-03-07T08:50:04;96769.56;;;18.27;45.63
83551;BME280;74617;47.082;15.524;2024-03-07T08:52:34;96769.25;;;18.29;45.65
83551;BME280;74617;47.082;15.524;2024-03-07T08:55:02;96764.94;;;18.28;45.58
83551;BME280;74617;47.082;15.524;2024-03-07T08:57:28;96764.94;;;18.28;45.53
83551;BME280;74617;47.082;15.524;2024-03-07T08:59:53;96771.16;;;18.28;45.74
83551;BME280;74617;47.082;15.524;2024-03-07T09:02:18;96764.94;;;18.28;45.58
83551;BME280;74617;47.082;15.524;2024-03-07T09:04:44;96766.53;;;18.29;45.67
83551;BME280;74617;47.082;15.524;2024-03-07T09:07:09;96766.53;;;18.29;45.75
83551;BME280;74617;47.082;15.524;2024-03-07T09:09:35;96762.22;;;18.28;45.82
83551;BME280;74617;47.082;15.524;2024-03-07T09:12:00;96766.53;;;18.29;45.81
83551;BME280;74617;47.082;15.524;2024-03-07T09:14:27;96759.97;;;18.30;45.61
83551;BME280;74617;47.082;15.524;2024-03-07T09:16:52;96761.09;;;18.29;45.86
83551;BME280;74617;47.082;15.524;2024-03-07T09:19:18;96762.22;;;18.28;45.56
83551;BME280;74617;47.082;15.524;2024-03-07T09:21:48;96766.53;;;18.29;45.66
83551;BME280;74617;47.082;15.524;2024-03-07T09:24:15;96764.59;;;18.29;45.63
83551;BME280;74617;47.082;15.524;2024-03-07T09:26:41;96765.41;;;18.30;45.91
83551;BME280;74617;47.082;15.524;2024-03-07T09:29:06;96761.09;;;18.29;45.94
83551;BME280;74617;47.082;15.524;2024-03-07T09:31:32;96761.88;;;18.29;45.69
83551;BME280;74617;47.082;15.524;2024-03-07T09:33:58;96762.69;;;18.30;46.11
83551;BME280;74617;47.082;15.524;2024-03-07T09:36:24;96768.13;;;18.30;45.83
83551;BME280;74617;47.082;15.524;2024-03-07T09:38:49;96764.59;;;18.29;45.73
83551;BME280;74617;47.082;15.524;2024-03-07T09:41:15;96768.91;;;18.30;46.15
83551;BME280;74617;47.082;15.524;2024-03-07T09:43:43;96763.47;;;18.30;46.00
83551;BME280;74617;47.082;15.524;2024-03-07T09:46:09;96770.84;;;18.30;45.82
83551;BME280;74617;47.082;15.524;2024-03-07T09:48:35;96763.47;;;18.30;46.03
83551;BME280;74617;47.082;15.524;2024-03-07T09:51:02;96765.88;;;18.32;45.91
83551;BME280;74617;47.082;15.524;2024-03-07T09:53:30;96759.63;;;18.31;45.95
83551;BME280;74617;47.082;15.524;2024-03-07T09:55:55;96765.88;;;18.32;46.16
83551;BME280;74617;47.082;15.524;2024-03-07T09:58:22;96769.09;;;18.34;45.82
83551;BME280;74617;47.082;15.524;2024-03-07T10:00:51;96772.94;;;18.33;46.02
83551;BME280;74617;47.082;15.524;2024-03-07T10:03:20;96772.13;;;18.33;46.11
83551;BME280;74617;47.082;15.524;2024-03-07T10:05:47;96769.09;;;18.34;46.12
83551;BME280;74617;47.082;15.524;2024-03-07T10:08:12;96769.09;;;18.34;46.15
83551;BME280;74617;47.082;15.524;2024-03-07T10:10:39;96771.81;;;18.34;46.06
83551;BME280;74617;47.082;15.524;2024-03-07T10:13:04;96774.53;;;18.34;45.98
83551;BME280;74617;47.082;15.524;2024-03-07T10:15:31;96767.50;;;18.33;46.19
83551;BME280;74617;47.082;15.524;2024-03-07T10:17:58;96774.53;;;18.34;46.06
83551;BME280;74617;47.082;15.524;2024-03-07T10:20:25;96774.53;;;18.34;46.28
83551;BME280;74617;47.082;15.524;2024-03-07T10:22:51;96775.31;;;18.35;46.30
83551;BME280;74617;47.082;15.524;2024-03-07T10:25:18;96778.38;;;18.33;46.12
83551;BME280;74617;47.082;15.524;2024-03-07T10:27:46;96781.56;;;18.35;46.08
83551;BME280;74617;47.082;15.524;2024-03-07T10:30:13;96778.84;;;18.35;46.23
83551;BME280;74617;47.082;15.524;2024-03-07T10:32:45;96779.97;;;18.34;46.46
83551;BME280;74617;47.082;15.524;2024-03-07T10:35:11;96781.56;;;18.35;46.43
83551;BME280;74617;47.082;15.524;2024-03-07T10:37:40;96777.25;;;18.34;46.19
83551;BME280;74617;47.082;15.524;2024-03-07T10:40:06;96772.59;;;18.35;46.29
83551;BME280;74617;47.082;15.524;2024-03-07T10:42:45;96782.34;;;18.36;46.32
83551;BME280;74617;47.082;15.524;2024-03-07T10:45:14;96776.13;;;18.35;46.19
83551;BME280;74617;47.082;15.524;2024-03-07T10:47:42;96774.97;;;18.36;46.47
83551;BME280;74617;47.082;15.524;2024-03-07T10:50:20;96773.41;;;18.35;46.54
83551;BME280;74617;47.082;15.524;2024-03-07T10:52:58;96774.19;;;18.36;46.59
83551;BME280;74617;47.082;15.524;2024-03-07T11:00:44;96772.09;;;18.41;46.84
83551;BME280;74617;47.082;15.524;2024-03-07T11:03:13;96774.16;;;18.44;47.27
83551;BME280;74617;47.082;15.524;2024-03-07T11:05:39;96769.50;;;18.45;47.43
83551;BME280;74617;47.082;15.524;2024-03-07T11:08:07;96771.09;;;18.46;47.38
83551;BME280;74617;47.082;15.524;2024-03-07T11:10:36;96772.72;;;18.47;47.59
83551;BME280;74617;47.082;15.524;2024-03-07T11:13:03;96771.59;;;18.48;47.40
83551;BME280;74617;47.082;15.524;2024-03-07T11:15:30;96765.84;;;18.49;47.48
83551;BME280;74617;47.082;15.524;2024-03-07T11:17:57;96769.69;;;18.48;47.49
83551;BME280;74617;47.082;15.524;2024-03-07T11:20:25;96765.84;;;18.49;47.23
83551;BME280;74617;47.082;15.524;2024-03-07T11:22:51;96772.88;;;18.50;47.71
83551;BME280;74617;47.082;15.524;2024-03-07T11:25:19;96764.69;;;18.50;47.60
83551;BME280;74617;47.082;15.524;2024-03-07T11:27:57;96760.84;;;18.51;47.43
83551;BME280;74617;47.082;15.524;2024-03-07T11:30:22;96760.06;;;18.51;47.66
83551;BME280;74617;47.082;15.524;2024-03-07T11:32:49;96763.28;;;18.53;47.67
83551;BME280;74617;47.082;15.524;2024-03-07T11:35:18;96769.50;;;18.53;47.62
83551;BME280;74617;47.082;15.524;2024-03-07T11:37:56;96762.13;;;18.54;47.79
83551;BME280;74617;47.082;15.524;2024-03-07T11:42:50;96759.88;;;18.56;47.62
83551;BME280;74617;47.082;15.524;2024-03-07T11:45:17;96755.25;;;18.56;47.56
83551;BME280;74617;47.082;15.524;2024-03-07T11:47:58;96757.63;;;18.58;47.55
83551;BME280;74617;47.082;15.524;2024-03-07T11:50:40;96750.75;;;18.61;47.64
83551;BME280;74617;47.082;15.524;2024-03-07T11:53:07;96748.50;;;18.63;47.67
83551;BME280;74617;47.082;15.524;2024-03-07T11:55:37;96754.94;;;18.67;47.45
83551;BME280;74617;47.082;15.524;2024-03-07T12:00:42;96738.59;;;18.67;47.77
83551;BME280;74617;47.082;15.524;2024-03-07T12:03:11;96728.97;;;18.69;47.63
83551;BME280;74617;47.082;15.524;2024-03-07T12:05:41;96725.44;;;18.69;47.55
83551;BME280;74617;47.082;15.524;2024-03-07T12:08:07;96725.13;;;18.70;47.57
83551;BME280;74617;47.082;15.524;2024-03-07T12:10:35;96719.69;;;18.70;47.47
83551;BME280;74617;47.082;15.524;2024-03-07T12:13:01;96720.13;;;18.72;47.60
83551;BME280;74617;47.082;15.524;2024-03-07T12:15:27;96720.94;;;18.73;47.73
83551;BME280;74617;47.082;15.524;2024-03-07T12:17:52;96726.72;;;18.71;47.72
83551;BME280;74617;47.082;15.524;2024-03-07T12:20:18;96726.38;;;18.73;47.77
83551;BME280;74617;47.082;15.524;2024-03-07T12:22:55;96726.38;;;18.73;47.69
83551;BME280;74617;47.082;15.524;2024-03-07T12:25:21;96725.56;;;18.72;47.57
83551;BME280;74617;47.082;15.524;2024-03-07T12:28:02;96731.81;;;18.73;47.49
83551;BME280;74617;47.082;15.524;2024-03-07T12:30:29;96725.28;;;18.74;47.82
83551;BME280;74617;47.082;15.524;2024-03-07T12:33:01;96723.66;;;18.73;47.48
83551;BME280;74617;47.082;15.524;2024-03-07T12:35:30;96719.84;;;18.74;47.67
83551;BME280;74617;47.082;15.524;2024-03-07T12:37:56;96723.34;;;18.74;47.46
83551;BME280;74617;47.082;15.524;2024-03-07T12:40:22;96720.28;;;18.76;47.50
83551;BME280;74617;47.082;15.524;2024-03-07T12:42:51;96709.41;;;18.76;47.36
83551;BME280;74617;47.082;15.524;2024-03-07T12:45:19;96719.63;;;18.79;47.45
83551;BME280;74617;47.082;15.524;2024-03-07T12:47:46;96722.34;;;18.79;47.39
83551;BME280;74617;47.082;15.524;2024-03-07T12:50:12;96714.97;;;18.79;47.30
83551;BME280;74617;47.082;15.524;2024-03-07T12:52:38;96716.59;;;18.80;47.37
83551;BME280;74617;47.082;15.524;2024-03-07T12:55:05;96713.88;;;18.80;47.27
83551;BME280;74617;47.082;15.524;2024-03-07T12:57:31;96714.66;;;18.81;47.22
83551;BME280;74617;47.082;15.524;2024-03-07T12:59:56;96716.59;;;18.80;47.22